createdAt,value
2023-04-24T00:00:24.871Z,9.76
2023-04-24T00:02:52.998Z,9.71
2023-04-24T00:05:22.049Z,9.63
2023-04-24T00:07:50.111Z,9.59
2023-04-24T00:10:17.957Z,9.57
2023-04-24T00:12:46.030Z,9.56
2023-04-24T00:15:15.497Z,9.55
2023-04-24T00:17:43.601Z,9.61
2023-04-24T00:20:12.918Z,9.55
2023-04-24T00:22:42.383Z,9.50
2023-04-24T00:25:10.930Z,9.49
2023-04-24T00:27:39.744Z,9.32
2023-04-24T00:30:10.429Z,9.41
2023-04-24T00:32:40.101Z,9.41
2023-04-24T00:35:09.512Z,9.40
2023-04-24T00:37:38.094Z,9.38
2023-04-24T00:40:10.518Z,9.36
2023-04-24T00:42:39.249Z,9.39
2023-04-24T00:45:08.844Z,9.40
2023-04-24T00:47:37.067Z,9.44
2023-04-24T00:50:08.136Z,9.29
2023-04-24T00:52:36.590Z,9.36
2023-04-24T00:55:05.227Z,9.42
2023-04-24T00:57:33.697Z,9.36
2023-04-24T01:00:01.665Z,9.40
2023-04-24T01:02:30.782Z,9.36
2023-04-24T01:04:59.317Z,9.34
2023-04-24T01:07:29.666Z,9.38
2023-04-24T01:09:57.854Z,9.32
2023-04-24T01:12:25.886Z,9.43
2023-04-24T01:14:53.904Z,9.49
2023-04-24T01:17:22.089Z,9.39
2023-04-24T01:19:49.988Z,9.41
2023-04-24T01:22:19.656Z,9.36
2023-04-24T01:24:47.605Z,9.37
2023-04-24T01:27:15.735Z,9.37
2023-04-24T01:29:45.891Z,9.42
2023-04-24T01:32:14.334Z,9.38
2023-04-24T01:34:42.749Z,9.40
2023-04-24T01:37:11.825Z,9.42
2023-04-24T01:39:41.905Z,9.35
2023-04-24T01:42:11.456Z,9.49
2023-04-24T01:44:39.734Z,9.48
2023-04-24T01:47:08.254Z,9.37
2023-04-24T01:49:36.695Z,9.38
2023-04-24T01:52:05.150Z,9.47
2023-04-24T01:54:33.250Z,9.49
2023-04-24T01:57:03.711Z,9.50
2023-04-24T01:59:33.807Z,9.51
2023-04-24T02:02:01.745Z,9.48
2023-04-24T02:04:29.781Z,9.57
2023-04-24T02:06:57.840Z,9.52
2023-04-24T02:09:26.193Z,9.55
2023-04-24T02:11:54.298Z,9.54
2023-04-24T02:14:23.650Z,9.57
2023-04-24T02:16:51.659Z,9.57
2023-04-24T02:19:19.594Z,9.59
2023-04-24T02:21:47.496Z,9.58
2023-04-24T02:24:17.270Z,9.62
2023-04-24T02:26:45.454Z,9.60
2023-04-24T02:29:13.333Z,9.63
2023-04-24T02:31:42.585Z,9.62
2023-04-24T02:34:10.564Z,9.60
2023-04-24T02:36:40.145Z,9.59
2023-04-24T02:39:08.412Z,9.54
2023-04-24T02:41:36.762Z,9.49
2023-04-24T02:44:05.026Z,9.49
2023-04-24T02:46:32.982Z,9.43
2023-04-24T02:49:02.491Z,9.50
2023-04-24T02:51:32.514Z,9.50
2023-04-24T02:54:06.540Z,9.48
2023-04-24T02:56:34.476Z,9.46
2023-04-24T02:59:05.743Z,9.36
2023-04-24T03:01:33.777Z,9.33
2023-04-24T03:04:15.615Z,9.33
2023-04-24T03:06:44.706Z,9.25
2023-04-24T03:09:13.045Z,9.34
2023-04-24T03:11:47.249Z,9.20
2023-04-24T03:14:15.187Z,9.24
2023-04-24T03:16:44.342Z,9.23
2023-04-24T03:19:12.344Z,9.21
2023-04-24T03:21:42.108Z,9.20
2023-04-24T03:24:10.854Z,9.17
2023-04-24T03:26:40.269Z,9.12
2023-04-24T03:29:08.303Z,9.19
2023-04-24T03:31:39.551Z,9.20
2023-04-24T03:34:09.688Z,9.12
2023-04-24T03:36:41.341Z,9.12
2023-04-24T03:39:09.455Z,9.07
2023-04-24T03:41:42.378Z,9.08
2023-04-24T03:44:10.464Z,9.13
2023-04-24T03:46:39.283Z,9.13
2023-04-24T03:49:07.605Z,9.15
2023-04-24T03:51:44.189Z,9.05
2023-04-24T03:54:24.693Z,9.12
2023-04-24T03:56:55.916Z,9.13
2023-04-24T03:59:24.041Z,9.12
2023-04-24T04:01:52.407Z,9.09
2023-04-24T04:04:20.705Z,9.01
2023-04-24T04:06:50.320Z,9.12
2023-04-24T04:09:19.720Z,9.10
2023-04-24T04:11:47.724Z,9.03
2023-04-24T04:14:15.707Z,9.08
2023-04-24T04:16:54.844Z,9.03
2023-04-24T04:19:23.206Z,9.05
2023-04-24T04:21:54.606Z,9.06
2023-04-24T04:24:23.558Z,9.04
2023-04-24T04:26:53.340Z,9.03
2023-04-24T04:29:21.686Z,9.05
2023-04-24T04:31:50.008Z,9.09
2023-04-24T04:34:18.030Z,9.09
2023-04-24T04:36:47.768Z,9.12
2023-04-24T04:39:17.654Z,9.01
2023-04-24T04:41:47.602Z,9.15
2023-04-24T04:44:18.948Z,9.09
2023-04-24T04:46:48.470Z,9.16
2023-04-24T04:49:24.743Z,9.17
2023-04-24T04:51:54.353Z,9.15
2023-04-24T04:54:24.952Z,9.09
2023-04-24T04:56:55.873Z,9.09
2023-04-24T04:59:25.884Z,9.04
2023-04-24T05:01:53.925Z,9.03
2023-04-24T05:04:22.320Z,8.99
2023-04-24T05:06:52.140Z,8.98
2023-04-24T05:09:20.724Z,9.00
2023-04-24T05:11:51.115Z,8.94
2023-04-24T05:14:20.537Z,8.83
2023-04-24T05:16:48.751Z,8.86
2023-04-24T05:19:16.970Z,8.87
2023-04-24T05:21:45.222Z,8.83
2023-04-24T05:24:13.312Z,8.85
2023-04-24T05:26:42.689Z,8.98
2023-04-24T05:29:12.885Z,8.99
2023-04-24T05:31:40.800Z,9.01
2023-04-24T05:34:10.596Z,8.96
2023-04-24T05:36:39.858Z,8.96
2023-04-24T05:39:08.520Z,9.02
2023-04-24T05:41:36.979Z,8.94
2023-04-24T05:44:05.243Z,9.06
2023-04-24T05:46:34.909Z,9.02
2023-04-24T05:49:03.450Z,9.08
2023-04-24T05:51:32.716Z,9.19
2023-04-24T05:54:02.583Z,9.21
2023-04-24T05:56:30.883Z,9.30
2023-04-24T05:59:06.234Z,9.35
2023-04-24T06:01:38.168Z,9.40
2023-04-24T06:04:06.947Z,9.38
2023-04-24T06:06:35.204Z,9.36
2023-04-24T06:09:03.985Z,9.49
2023-04-24T06:11:32.148Z,9.42
2023-04-24T06:14:00.134Z,9.40
2023-04-24T06:16:28.481Z,9.47
2023-04-24T06:18:58.151Z,9.35
2023-04-24T06:21:27.989Z,9.48
2023-04-24T06:23:57.141Z,9.60
2023-04-24T06:26:29.104Z,9.39
2023-04-24T06:28:57.362Z,9.29
2023-04-24T06:31:25.984Z,9.34
2023-04-24T06:33:54.542Z,9.37
2023-04-24T06:36:27.847Z,9.27
2023-04-24T06:38:56.826Z,9.42
2023-04-24T06:41:27.880Z,9.49
2023-04-24T06:43:57.833Z,9.52
2023-04-24T06:46:29.257Z,9.33
2023-04-24T06:49:01.412Z,9.49
2023-04-24T06:51:34.434Z,9.67
2023-04-24T06:54:03.096Z,9.53
2023-04-24T06:56:31.635Z,9.59
2023-04-24T06:59:01.125Z,9.62
2023-04-24T07:01:29.363Z,9.55
2023-04-24T07:04:06.223Z,9.69
2023-04-24T07:06:36.952Z,9.59
2023-04-24T07:09:09.330Z,9.55
2023-04-24T07:11:41.619Z,9.44
2023-04-24T07:14:11.115Z,9.59
2023-04-24T07:16:42.004Z,9.42
2023-04-24T07:19:14.871Z,9.38
2023-04-24T07:22:04.428Z,9.63
2023-04-24T07:24:41.100Z,9.50
2023-04-24T07:27:18.173Z,9.41
2023-04-24T07:29:49.951Z,9.57
2023-04-24T07:32:18.228Z,9.46
2023-04-24T07:34:46.518Z,9.51
2023-04-24T07:37:46.908Z,9.59
2023-04-24T07:40:37.774Z,9.43
2023-04-24T07:43:31.794Z,9.40
2023-04-24T07:46:15.139Z,9.24
2023-04-24T07:48:58.918Z,9.15
2023-04-24T07:51:48.845Z,9.07
2023-04-24T07:54:26.614Z,9.08
2023-04-24T07:57:08.525Z,9.03
2023-04-24T07:59:36.889Z,9.24
2023-04-24T08:02:07.959Z,9.21
2023-04-24T08:04:52.305Z,9.14
2023-04-24T08:07:21.376Z,9.06
2023-04-24T08:09:55.011Z,9.07
2023-04-24T08:12:23.769Z,9.11
2023-04-24T08:14:54.226Z,9.13
2023-04-24T08:17:23.405Z,9.12
2023-04-24T08:20:02.234Z,9.06
2023-04-24T08:22:30.802Z,9.02
2023-04-24T08:25:02.764Z,8.94
2023-04-24T08:27:33.412Z,8.83
2023-04-24T08:30:02.202Z,8.74
2023-04-24T08:32:30.763Z,8.77
2023-04-24T08:34:59.565Z,8.76
2023-04-24T08:37:29.740Z,8.63
2023-04-24T08:39:58.387Z,8.59
2023-04-24T08:42:32.847Z,8.56
2023-04-24T08:45:01.792Z,8.46
2023-04-24T08:47:40.065Z,8.74
2023-04-24T08:50:11.965Z,8.65
2023-04-24T08:52:39.850Z,8.45
2023-04-24T08:55:08.811Z,8.55
2023-04-24T08:57:41.455Z,8.61
2023-04-24T09:00:12.195Z,8.52
2023-04-24T09:02:49.035Z,8.38
2023-04-24T09:05:19.386Z,8.14
2023-04-24T09:07:52.126Z,8.26
2023-04-24T09:10:20.327Z,8.31
2023-04-24T09:12:50.127Z,8.29
2023-04-24T09:15:18.340Z,8.31
2023-04-24T09:17:46.745Z,8.32
2023-04-24T09:20:15.329Z,8.23
2023-04-24T09:22:44.915Z,8.31
2023-04-24T09:25:15.039Z,8.38
2023-04-24T09:27:58.090Z,8.35
2023-04-24T09:30:27.643Z,8.29
2023-04-24T09:33:14.736Z,8.36
2023-04-24T09:35:53.161Z,8.42
2023-04-24T09:38:33.785Z,8.42
2023-04-24T09:41:08.046Z,8.33
2023-04-24T09:43:44.393Z,8.34
2023-04-24T09:46:15.691Z,8.31
2023-04-24T09:48:44.099Z,8.34
2023-04-24T09:51:12.490Z,8.37
2023-04-24T09:53:42.013Z,8.48
2023-04-24T09:56:14.196Z,8.60
2023-04-24T09:58:44.996Z,8.52
2023-04-24T10:01:13.287Z,8.46
2023-04-24T10:03:47.999Z,8.32
2023-04-24T10:06:16.919Z,8.51
2023-04-24T10:08:47.416Z,8.40
2023-04-24T10:11:15.931Z,8.44
2023-04-24T10:13:46.010Z,8.43
2023-04-24T10:16:14.626Z,8.41
2023-04-24T10:18:43.326Z,8.42
2023-04-24T10:21:14.427Z,8.53
2023-04-24T10:23:46.786Z,8.77
2023-04-24T10:26:20.438Z,8.74
2023-04-24T10:28:51.794Z,8.93
2023-04-24T10:31:23.561Z,8.83
2023-04-24T10:33:54.452Z,9.09
2023-04-24T10:36:28.869Z,9.11
2023-04-24T10:38:59.144Z,9.07
2023-04-24T10:41:28.302Z,9.17
2023-04-24T10:44:18.080Z,9.12
2023-04-24T10:46:54.020Z,9.30
2023-04-24T10:49:30.924Z,9.18
2023-04-24T10:52:03.786Z,9.29
2023-04-24T10:54:36.853Z,9.25
2023-04-24T10:57:33.929Z,9.39
2023-04-24T11:00:23.371Z,9.32
2023-04-24T11:02:56.673Z,9.27
2023-04-24T11:05:52.861Z,9.33
2023-04-24T11:08:29.740Z,9.40
2023-04-24T11:11:03.736Z,9.45
2023-04-24T11:14:08.479Z,9.66
2023-04-24T11:16:45.702Z,9.43
2023-04-24T11:19:22.855Z,9.32
2023-04-24T11:21:58.481Z,9.26
2023-04-24T11:24:32.068Z,9.02
2023-04-24T11:27:02.643Z,9.11
2023-04-24T11:29:52.362Z,9.22
2023-04-24T11:32:27.932Z,9.67
2023-04-24T11:34:57.784Z,9.60
2023-04-24T11:37:29.832Z,10.15
2023-04-24T11:40:01.502Z,10.46
2023-04-24T11:42:32.154Z,10.14
2023-04-24T11:45:01.638Z,10.41
2023-04-24T11:47:35.064Z,10.21
2023-04-24T11:50:06.295Z,9.93
2023-04-24T11:52:39.027Z,9.70
2023-04-24T11:55:10.926Z,9.59
2023-04-24T11:57:40.524Z,9.20
2023-04-24T12:00:10.535Z,8.92
2023-04-24T12:02:45.219Z,8.89
2023-04-24T12:05:22.773Z,8.86
2023-04-24T12:07:52.002Z,8.91
2023-04-24T12:10:22.994Z,8.74
2023-04-24T12:12:52.698Z,8.94
2023-04-24T12:15:27.031Z,8.91
2023-04-24T12:18:01.130Z,9.05
2023-04-24T12:20:31.237Z,9.36
2023-04-24T12:23:36.052Z,9.73
2023-04-24T12:26:10.222Z,9.88
2023-04-24T12:28:51.790Z,10.00
2023-04-24T12:31:27.916Z,10.06
2023-04-24T12:33:57.388Z,10.35
2023-04-24T12:36:27.839Z,10.33
2023-04-24T12:38:56.081Z,10.14
2023-04-24T12:41:24.190Z,10.39
2023-04-24T12:43:56.666Z,10.44
2023-04-24T12:46:24.672Z,10.37
2023-04-24T12:48:53.036Z,9.99
2023-04-24T12:51:22.660Z,9.86
2023-04-24T12:53:50.759Z,9.69
2023-04-24T12:56:20.544Z,9.44
2023-04-24T12:58:48.757Z,9.40
2023-04-24T13:01:21.577Z,9.29
2023-04-24T13:03:50.113Z,9.46
2023-04-24T13:06:19.718Z,9.50
2023-04-24T13:08:50.824Z,9.83
2023-04-24T13:11:19.254Z,10.10
2023-04-24T13:13:49.584Z,9.86
2023-04-24T13:16:18.047Z,9.67
2023-04-24T13:18:46.384Z,9.62
2023-04-24T13:21:14.720Z,9.70
2023-04-24T13:23:45.683Z,9.71
2023-04-24T13:26:15.663Z,9.71
2023-04-24T13:29:01.514Z,9.81
2023-04-24T13:31:31.090Z,9.50
2023-04-24T13:33:59.628Z,9.71
2023-04-24T13:36:31.790Z,9.73
2023-04-24T13:39:08.885Z,10.20
2023-04-24T13:41:39.378Z,10.27
2023-04-24T13:44:10.337Z,10.23
2023-04-24T13:46:38.494Z,10.21
2023-04-24T13:49:06.816Z,10.66
2023-04-24T13:51:35.390Z,10.31
2023-04-24T13:54:03.637Z,10.67
2023-04-24T13:56:32.233Z,10.22
2023-04-24T13:59:09.915Z,9.80
2023-04-24T14:01:38.488Z,9.79
2023-04-24T14:04:07.679Z,9.68
2023-04-24T14:06:38.083Z,9.58
2023-04-24T14:09:09.515Z,9.51
2023-04-24T14:11:38.983Z,9.63
2023-04-24T14:14:14.753Z,9.41
2023-04-24T14:16:44.973Z,9.37
2023-04-24T14:19:13.670Z,9.22
2023-04-24T14:21:42.880Z,9.15
2023-04-24T14:24:13.998Z,9.33
2023-04-24T14:26:56.660Z,9.66
2023-04-24T14:29:27.900Z,9.81
2023-04-24T14:31:57.229Z,9.58
2023-04-24T14:34:27.862Z,9.20
2023-04-24T14:37:00.178Z,9.05
2023-04-24T14:39:31.783Z,8.84
2023-04-24T14:42:01.890Z,8.92
2023-04-24T14:44:31.749Z,8.83
2023-04-24T14:47:07.263Z,8.55
2023-04-24T14:49:36.208Z,8.51
2023-04-24T14:52:06.740Z,8.53
2023-04-24T14:54:35.978Z,8.73
2023-04-24T14:57:04.881Z,8.68
2023-04-24T14:59:35.783Z,8.48
2023-04-24T15:02:15.501Z,8.30
2023-04-24T15:04:45.562Z,8.12
2023-04-24T15:07:13.866Z,8.06
2023-04-24T15:09:42.397Z,8.23
2023-04-24T15:12:14.690Z,8.41
2023-04-24T15:14:45.498Z,8.35
2023-04-24T15:17:17.043Z,8.50
2023-04-24T15:19:45.623Z,8.47
2023-04-24T15:22:14.939Z,8.37
2023-04-24T15:24:48.803Z,8.37
2023-04-24T15:27:22.942Z,8.38
2023-04-24T15:29:55.084Z,8.50
2023-04-24T15:32:29.388Z,8.53
2023-04-24T15:35:07.816Z,8.31
2023-04-24T15:37:38.648Z,8.34
2023-04-24T15:40:09.897Z,8.20
2023-04-24T15:42:39.017Z,8.22
2023-04-24T15:45:11.530Z,8.33
2023-04-24T15:47:44.636Z,8.29
2023-04-24T15:50:14.790Z,8.17
2023-04-24T15:52:45.413Z,8.21
2023-04-24T15:55:13.916Z,8.07
2023-04-24T15:57:43.163Z,8.16
2023-04-24T16:00:18.482Z,8.48
2023-04-24T16:03:05.376Z,8.75
2023-04-24T16:06:00.136Z,8.52
2023-04-24T16:08:36.394Z,8.23
2023-04-24T16:11:14.213Z,8.32
2023-04-24T16:13:51.392Z,8.34
2023-04-24T16:16:28.031Z,8.20
2023-04-24T16:18:58.354Z,8.47
2023-04-24T16:21:28.354Z,8.71
2023-04-24T16:24:00.415Z,8.71
2023-04-24T16:26:28.741Z,8.45
2023-04-24T16:29:06.409Z,8.35
2023-04-24T16:31:40.778Z,8.47
2023-04-24T16:34:09.607Z,8.21
2023-04-24T16:36:38.674Z,8.39
2023-04-24T16:39:10.017Z,8.25
2023-04-24T16:41:39.755Z,8.40
2023-04-24T16:44:13.298Z,8.38
2023-04-24T16:46:43.842Z,8.41
2023-04-24T16:52:08.587Z,8.18
2023-04-24T16:54:39.937Z,8.22
2023-04-24T16:57:11.204Z,8.18
2023-04-24T16:59:50.049Z,8.23
2023-04-24T17:02:57.846Z,8.08
2023-04-24T17:05:28.940Z,7.84
2023-04-24T17:08:25.133Z,7.84
2023-04-24T17:10:59.134Z,7.77
2023-04-24T17:13:34.287Z,7.85
2023-04-24T17:16:23.328Z,7.80
2023-04-24T17:19:05.558Z,7.94
2023-04-24T17:21:47.186Z,7.75
2023-04-24T17:24:18.104Z,7.87
2023-04-24T17:27:01.710Z,7.91
2023-04-24T17:29:39.336Z,8.01
2023-04-24T17:32:07.883Z,7.81
2023-04-24T17:34:40.809Z,7.56
2023-04-24T17:37:11.586Z,7.37
2023-04-24T17:39:41.069Z,7.41
2023-04-24T17:42:13.409Z,7.64
2023-04-24T17:44:44.187Z,7.62
2023-04-24T17:47:13.577Z,7.36
2023-04-24T17:49:43.719Z,7.53
2023-04-24T17:52:15.389Z,7.58
2023-04-24T17:54:43.528Z,7.49
2023-04-24T17:57:12.386Z,7.46
2023-04-24T17:59:55.184Z,7.27
2023-04-24T18:02:23.483Z,7.44
2023-04-24T18:05:14.493Z,7.36
2023-04-24T18:07:42.706Z,7.48
2023-04-24T18:10:11.099Z,7.26
2023-04-24T18:12:40.042Z,7.36
2023-04-24T18:15:22.550Z,7.32
2023-04-24T18:18:00.402Z,7.36
2023-04-24T18:21:16.724Z,7.22
2023-04-24T18:24:11.970Z,7.13
2023-04-24T18:26:42.516Z,7.28
2023-04-24T18:29:10.618Z,7.23
2023-04-24T18:31:39.948Z,7.24
2023-04-24T18:34:08.363Z,7.09
2023-04-24T18:36:37.733Z,7.10
2023-04-24T18:39:07.955Z,6.90
2023-04-24T18:41:36.784Z,6.78
2023-04-24T18:44:08.897Z,6.69
2023-04-24T18:46:41.677Z,6.49
2023-04-24T18:49:13.415Z,6.38
2023-04-24T18:51:56.460Z,6.56
2023-04-24T18:54:30.051Z,6.38
2023-04-24T18:57:04.013Z,6.15
2023-04-24T18:59:35.088Z,6.37
2023-04-24T19:02:09.316Z,6.26
2023-04-24T19:04:38.600Z,6.14
2023-04-24T19:07:07.164Z,6.19
2023-04-24T19:09:38.344Z,6.15
2023-04-24T19:12:11.646Z,6.06
2023-04-24T19:14:40.415Z,6.19
2023-04-24T19:19:55.133Z,6.22
2023-04-24T19:22:25.413Z,6.39
2023-04-24T19:24:55.014Z,6.28
2023-04-24T19:27:22.974Z,6.53
2023-04-24T19:29:52.294Z,6.48
2023-04-24T19:32:20.912Z,6.58
2023-04-24T19:34:48.857Z,6.56
2023-04-24T19:37:18.054Z,6.56
2023-04-24T19:39:47.041Z,6.63
2023-04-24T19:42:19.441Z,6.65
2023-04-24T19:44:51.731Z,6.70
2023-04-24T19:47:19.863Z,6.73
2023-04-24T19:49:54.133Z,6.81
2023-04-24T19:52:22.929Z,6.80
2023-04-24T19:54:52.787Z,6.88
2023-04-24T19:57:22.130Z,6.96
2023-04-24T19:59:52.713Z,6.93
2023-04-24T20:02:21.810Z,6.86
2023-04-24T20:04:51.776Z,6.99
2023-04-24T20:07:20.239Z,6.91
2023-04-24T20:09:48.367Z,6.92
2023-04-24T20:12:19.620Z,7.03
2023-04-24T20:14:55.738Z,6.97
2023-04-24T20:17:24.152Z,7.12
2023-04-24T20:19:52.119Z,7.11
2023-04-24T20:22:21.365Z,7.12
2023-04-24T20:24:50.487Z,7.10
2023-04-24T20:27:18.857Z,7.08
2023-04-24T20:29:49.294Z,7.10
2023-04-24T20:32:17.210Z,7.03
2023-04-24T20:34:45.148Z,7.05
2023-04-24T20:37:13.436Z,7.00
2023-04-24T20:39:44.507Z,6.95
2023-04-24T20:42:12.667Z,6.95
2023-04-24T20:44:41.609Z,6.90
2023-04-24T20:47:10.994Z,6.89
2023-04-24T20:49:39.695Z,6.89
2023-04-24T20:52:08.131Z,6.94
2023-04-24T20:54:36.920Z,6.80
2023-04-24T20:57:05.040Z,6.76
2023-04-24T20:59:33.979Z,6.84
2023-04-24T21:02:36.036Z,6.87
2023-04-24T21:05:10.427Z,6.88
2023-04-24T21:07:38.693Z,6.80
2023-04-24T21:10:09.123Z,6.87
2023-04-24T21:12:37.179Z,6.81
2023-04-24T21:15:06.630Z,6.86
2023-04-24T21:17:34.590Z,6.72
2023-04-24T21:20:04.295Z,6.90
2023-04-24T21:22:39.756Z,6.84
2023-04-24T21:25:10.350Z,6.80
2023-04-24T21:27:39.699Z,6.84
2023-04-24T21:30:10.278Z,6.79
2023-04-24T21:33:24.976Z,6.74
2023-04-24T21:35:59.347Z,6.82
2023-04-24T21:38:41.903Z,6.73
2023-04-24T21:41:13.933Z,6.76
2023-04-24T21:43:45.004Z,6.65
2023-04-24T21:46:14.372Z,6.72
2023-04-24T21:48:42.469Z,6.65
2023-04-24T21:51:20.573Z,6.68
2023-04-24T21:53:51.485Z,6.69
2023-04-24T21:56:19.702Z,6.65
2023-04-24T21:58:49.303Z,6.65
2023-04-24T22:01:19.076Z,6.67
2023-04-24T22:03:47.160Z,6.68
2023-04-24T22:06:16.154Z,6.70
2023-04-24T22:08:47.853Z,6.68
2023-04-24T22:11:26.603Z,6.60
2023-04-24T22:14:01.794Z,6.57
2023-04-24T22:16:31.067Z,6.53
2023-04-24T22:18:59.861Z,6.43
2023-04-24T22:21:27.802Z,6.52
2023-04-24T22:23:55.788Z,6.52
2023-04-24T22:26:25.150Z,6.46
2023-04-24T22:28:54.736Z,6.51
2023-04-24T22:31:24.391Z,6.51
2023-04-24T22:33:56.898Z,6.43
2023-04-24T22:36:27.196Z,6.42
2023-04-24T22:38:55.098Z,6.31
2023-04-24T22:41:25.000Z,6.32
2023-04-24T22:43:53.197Z,6.34
2023-04-24T22:46:23.578Z,6.24
2023-04-24T22:48:51.585Z,6.26
2023-04-24T22:51:19.554Z,6.28
2023-04-24T22:53:49.736Z,6.24
2023-04-24T22:56:18.165Z,6.16
2023-04-24T22:58:47.843Z,6.21
2023-04-24T23:01:16.380Z,6.18
2023-04-24T23:03:45.780Z,6.05
2023-04-24T23:06:17.097Z,6.11
2023-04-24T23:08:47.250Z,6.04
2023-04-24T23:11:16.687Z,6.14
2023-04-24T23:13:45.036Z,6.12
2023-04-24T23:16:14.362Z,6.08
2023-04-24T23:18:45.480Z,6.07
2023-04-24T23:21:14.630Z,6.00
2023-04-24T23:23:44.210Z,6.05
2023-04-24T23:26:12.247Z,5.99
2023-04-24T23:28:40.926Z,6.02
2023-04-24T23:31:08.946Z,6.02
2023-04-24T23:33:38.878Z,6.04
2023-04-24T23:36:07.968Z,6.05
2023-04-24T23:38:46.615Z,6.05
2023-04-24T23:41:17.596Z,6.04
2023-04-24T23:43:45.488Z,6.01
2023-04-24T23:46:15.825Z,5.98
2023-04-24T23:48:47.925Z,5.97
2023-04-24T23:51:16.686Z,6.01
2023-04-24T23:53:45.498Z,5.96
2023-04-24T23:56:13.327Z,5.97
2023-04-24T23:58:41.599Z,5.80
